aussie ACE2'S WEATHER STATIONaussie

Speaker Icon Turns Ambient Background Sounds ON/OFF
Select which page style from below(a cookie will remember your selection for future use for style)
Standard Style Theme Current Conditions Style Changer

Latitude S 35° 06' 39"   Longitude E 138° 31' 40"   Elevation 102 m

OBSERVATIONS  0 - 24  HOURS

00-24 HOURS 24-48 HOURS 48-72 HOURS 72-96 HOURS 96-120 HOURS Navigation Menu

Date/Time
WST
temperature
°C
Dew Point
°C
Humidity
%
Wind Speed
km/h
Wind Gust
km/h
Wind
Direction
Barometer
mb
Rain Today
mm
18/03:00pm 33.3 7.3 20 12.2 18.4 1013.2 0.9
18/02:30pm 33.3 7.3 20 11.2 22.0 1013.2 0.9
18/02:00pm 33.6 7.6 20 9.7 28.1 1013.2 0.9
18/01:30pm 33.2 8.0 21 9.7 22.0 1013.2 0.9
18/01:00pm 32.9 7.7 21 12.2 22.0 1013.2 0.9
18/12:30pm 33.0 7.1 20 9.7 15.8 1013.2 0.9
18/12:00pm 32.5 7.4 21 6.1 11.2 1013.2 0.9
18/11:30am 31.4 10.2 27 6.1 13.3 1013.2 0.9
18/11:00am 30.0 10.1 29 8.6 14.8 1013.2 0.9
18/10:30am 28.8 11.0 33 3.6 8.6 1013.2 0.9
18/10:00am 27.8 12.6 39 3.6 7.2 1013.2 0.9
18/09:30am 26.9 15.3 49 1.1 2.5 1013.2 0.9
18/09:00am 27.4 13.0 41 2.5 7.2 1013.2 0.9
18/08:30am 27.3 14.0 44 6.1 12.2 1013.2 0.9
18/08:00am 26.4 15.5 51 3.6 8.6 1013.2 0.9
18/07:30am 25.4 15.7 55 3.6 8.6 1013.2 0.9
18/07:00am 24.0 16.3 62 2.5 6.1 1013.2 0.9
18/06:30am 24.0 16.3 62 2.5 5.0 1013.2 0.9
18/06:00am 23.4 16.7 66 1.1 5.0 1013.2 0.9
18/05:30am 23.4 16.7 66 3.6 5.0 1013.2 0.9
18/05:00am 22.6 17.1 71 2.5 6.1 1013.2 0.9
18/04:30am 23.2 16.8 67 1.1 5.0 1013.2 0.6
18/04:00am 23.3 16.6 66 6.1 12.2 1013.2 0.6
18/03:30am 22.9 17.4 71 5.0 7.2 1013.2 0.6
18/03:00am 25.5 15.8 55 0.0 7.2 1013.2 0.6
18/02:30am 27.4 13.7 43 6.1 9.7 1013.2 0.3
18/02:00am 27.3 13.3 42 7.2 15.8 1013.2 0.3
18/01:30am 27.1 13.1 42 9.7 15.8 1013.2 0.3
18/01:00am 26.4 14.5 48 11.2 22.0 1013.2 0.3
18/12:30am 25.5 14.6 51 2.5 8.6 1013.2 0.3
18/12:00am 24.3 15.3 57 5.0 8.6 1013.2 0.0
17/11:30pm 25.9 14.7 50 3.6 5.0 1013.2 0.0
17/11:00pm 27.1 12.4 40 2.5 6.1 1013.2 0.0
17/10:30pm 27.0 9.4 33 1.1 5.0 1013.2 0.0
17/10:00pm 27.4 9.3 32 0.0 8.6 1013.2 0.0
17/09:30pm 26.8 10.5 36 6.1 6.1 1013.2 0.0
17/09:00pm 28.1 8.9 30 5.0 8.6 1013.2 0.0
17/08:30pm 27.8 10.1 33 3.6 6.1 1013.2 0.0
17/08:00pm 28.1 10.3 33 2.5 5.0 1013.2 0.0
17/07:30pm 28.7 9.9 31 3.6 11.2 1013.2 0.0
17/07:00pm 28.7 9.9 31 6.1 11.2 1013.2 0.0
17/06:30pm 27.5 9.8 33 6.1 8.6 1013.2 0.0
17/06:00pm 29.7 10.3 30 3.6 13.3 1013.2 0.0
17/05:30pm 30.8 10.7 29 1.1 8.6 1013.2 0.0
17/05:00pm 31.4 10.7 28 3.6 9.7 1013.2 0.0
17/04:30pm 30.2 11.2 31 3.6 9.7 1013.2 0.0
17/04:00pm 31.0 11.4 30 5.0 6.1 1013.2 0.0
17/03:30pm 32.0 13.7 33 0.0 3.6 1013.2 0.0
17/03:00pm 32.2 13.9 33 0.0 8.6 1013.2 0.0
17/02:30pm 32.7 12.9 30 1.1 7.2 1013.2 0.0

OBSERVATIONS  24 - 48  HOURS

00-24 HOURS 24-48 HOURS 48-72 HOURS 72-96 HOURS 96-120 HOURS Navigation Menu

Date/Time
WST
temperature
°C
Dew Point
°C
Humidity
%
Wind Speed
km/h
Wind Gust
km/h
Wind
Direction
Barometer
mb
Rain Today
mm
17/03:00pm 32.2 13.9 33 0.0 8.6 1013.2 0.0
17/02:30pm 32.7 12.9 30 1.1 7.2 1013.2 0.0
17/02:00pm 32.2 13.9 33 6.1 11.2 1013.2 0.0
17/01:30pm 34.2 13.1 28 5.0 8.6 1013.2 0.0
17/01:00pm 34.1 14.6 31 1.1 8.6 1013.2 0.0
17/12:30pm 34.4 14.4 30 1.1 8.6 1013.2 0.0
17/12:00pm 32.3 13.0 31 3.6 8.6 1013.2 0.0
17/11:30am 31.9 12.7 31 6.1 9.7 1013.2 0.0
17/11:00am 30.8 13.6 35 1.1 3.6 1013.2 0.0
17/10:30am 29.9 13.7 37 2.5 6.1 1013.2 0.0
17/10:00am 27.7 13.3 41 1.1 3.6 1013.2 0.0
17/09:30am 24.6 13.5 50 0.0 2.5 1013.2 0.0
17/09:00am 23.2 12.8 52 1.1 6.1 1013.2 0.0
17/08:30am 22.6 12.6 53 3.6 8.6 1013.2 0.0
17/08:00am 23.7 10.4 43 1.1 5.0 1013.2 0.0
17/07:30am 21.2 11.0 52 6.1 14.8 1013.2 0.0
17/07:00am 19.8 11.3 58 9.7 23.4 1013.2 0.0
17/06:30am 18.1 10.7 62 8.6 14.8 1013.2 0.0
17/06:00am 17.2 11.9 71 11.2 14.8 1013.2 0.0
17/05:30am 16.8 12.4 75 5.0 13.3 1013.2 0.0
17/05:00am 16.5 12.5 77 6.1 11.2 1013.2 0.0
17/04:30am 16.2 12.8 80 7.2 9.7 1013.2 0.0
17/04:00am 16.2 12.8 80 5.0 9.7 1013.2 0.0
17/03:30am 16.0 12.7 81 6.1 11.2 1013.2 0.0
17/03:00am 16.1 12.8 81 5.0 19.4 1013.2 0.0
17/02:30am 16.2 12.9 81 13.3 19.4 1013.2 0.0
17/02:00am 16.2 12.9 81 1.1 15.8 1013.2 0.0
17/01:30am 16.2 12.8 80 8.6 14.8 1013.2 0.0
17/01:00am 16.4 12.6 78 5.0 15.8 1013.2 0.0
17/12:30am 16.4 12.4 77 5.0 9.7 1013.2 0.0
17/12:00am 16.5 12.1 75 3.6 8.6 1013.2 0.0
16/11:30pm 16.7 12.3 75 1.1 17.3 1013.2 0.0
16/11:00pm 16.9 12.0 73 8.6 15.8 1013.2 0.0
16/10:30pm 17.1 11.8 71 7.2 9.7 1013.2 0.0
16/10:00pm 17.2 11.9 71 8.6 13.3 1013.2 0.0
16/09:30pm 17.7 11.0 65 5.0 12.2 1013.2 0.0
16/09:00pm 18.4 11.2 63 6.1 14.8 1013.2 0.0
16/08:30pm 19.4 11.4 60 3.6 9.7 1013.2 0.0
16/08:00pm 20.6 11.5 56 5.0 14.8 1013.2 0.0
16/07:30pm 21.6 12.5 56 7.2 15.8 1013.2 0.0
16/07:00pm 23.0 12.3 51 6.1 13.3 1013.2 0.0
16/06:30pm 25.7 12.6 44 11.2 14.8 1013.2 0.0
16/06:00pm 27.6 11.2 36 8.6 11.2 1013.2 0.0
16/05:30pm 28.7 11.8 35 5.0 14.8 1013.2 0.0
16/05:00pm 30.5 14.6 38 1.1 7.2 1013.2 0.0
16/04:30pm 27.8 13.0 40 1.1 17.3 1013.2 0.0
16/04:00pm 26.6 13.4 44 9.7 17.3 1013.2 0.0
16/03:30pm 27.5 12.7 40 5.0 14.8 1013.2 0.0
16/03:00pm 27.4 13.4 42 5.0 17.3 1013.2 0.0
16/02:30pm 26.6 13.4 44 5.0 13.3 1013.2 0.0

OBSERVATIONS  48 - 72  HOURS

00-24 HOURS 24-48 HOURS 48-72 HOURS 72-96 HOURS 96-120 HOURS Navigation Menu

Date/Time
WST
temperature
°C
Dew Point
°C
Humidity
%
Wind Speed
km/h
Wind Gust
km/h
Wind
Direction
Barometer
mb
Rain Today
mm
16/03:00pm 27.4 13.4 42 5.0 17.3 1013.2 0.0
16/02:30pm 26.6 13.4 44 5.0 13.3 1013.2 0.0
16/02:00pm 26.2 13.7 46 1.1 13.3 1013.2 0.0
16/01:30pm 26.4 13.2 44 3.6 9.7 1013.2 0.0
16/01:00pm 26.7 13.1 43 6.1 12.2 1013.2 0.0
16/12:30pm 26.6 13.0 43 2.5 12.2 1013.2 0.0
16/12:01pm 26.9 12.9 42 6.1 11.2 1013.2 0.0
16/11:30am 27.7 12.5 39 2.5 8.6 1013.2 0.0
16/11:00am 26.8 12.8 42 5.0 7.2 1013.2 0.0
16/10:30am 25.7 11.1 40 2.5 7.2 1013.2 0.0
16/10:00am 26.3 11.6 40 3.6 8.6 1013.2 0.0
16/09:30am 25.4 10.8 40 3.6 9.7 1013.2 0.0
16/09:00am 25.2 11.4 42 1.1 7.2 1013.2 0.0
16/08:30am 23.9 11.3 45 3.6 6.1 1013.2 0.0
16/08:00am 24.9 12.2 45 2.5 6.1 1013.2 0.0
16/07:30am 21.4 12.8 58 1.1 5.0 1013.2 0.0
16/07:00am 19.1 12.8 67 0.0 2.5 1013.2 0.0
16/06:30am 13.0 10.7 86 1.1 2.5 1013.2 0.0
16/06:00am 12.1 10.3 89 0.0 0.0 1013.2 0.0
16/05:30am 12.1 10.5 90 0.0 0.0 1013.2 0.0
16/05:00am 12.2 10.4 89 0.0 0.0 1013.2 0.0
16/04:30am 12.2 10.3 88 0.0 0.0 1013.2 0.0
16/04:00am 12.5 9.7 83 0.0 0.0 1013.2 0.0
16/03:30am 12.7 9.5 81 0.0 1.1 1013.2 0.0
16/03:00am 13.1 9.9 81 0.0 1.1 1013.2 0.0
16/02:30am 13.2 10.0 81 0.0 2.5 1013.2 0.0
16/02:00am 13.3 9.7 79 0.0 0.0 1013.2 0.0
16/01:30am 14.1 9.9 76 0.0 3.6 1013.2 0.0
16/01:00am 14.5 9.9 74 0.0 5.0 1013.2 0.0
16/12:30am 14.7 9.9 73 0.0 2.5 1013.2 0.0
16/12:00am 15.1 10.1 72 0.0 3.6 1013.2 0.0
15/11:30pm 15.4 10.2 71 2.5 5.0 1013.2 0.0
15/11:00pm 15.8 10.3 70 1.1 7.2 1013.2 0.0
15/10:30pm 16.0 10.5 70 2.5 6.1 1013.2 0.0
15/10:00pm 16.2 10.7 70 0.0 7.2 1013.2 0.0
15/09:30pm 16.7 10.8 68 0.0 6.1 1013.2 0.0
15/09:00pm 17.2 11.0 67 1.1 7.2 1013.2 0.0
15/08:30pm 17.8 9.9 60 2.5 9.7 1013.2 0.0
15/08:00pm 18.6 10.2 58 2.5 11.2 1013.2 0.0
15/07:30pm 19.9 11.4 58 1.1 9.7 1013.2 0.0
15/07:00pm 20.7 11.1 54 3.6 12.2 1013.2 0.0
15/06:30pm 23.6 10.7 44 3.6 9.7 1013.2 0.0
15/06:00pm 24.4 10.3 41 8.6 17.3 1013.2 0.0
15/05:30pm 26.6 11.5 39 1.1 13.3 1013.2 0.0
15/05:00pm 28.4 8.7 29 1.1 13.3 1013.2 0.0
15/04:30pm 28.5 8.2 28 1.1 11.2 1013.2 0.0
15/04:00pm 28.1 8.9 30 7.2 11.2 1013.2 0.0
15/03:30pm 26.6 8.6 32 1.1 13.3 1013.2 0.0
15/03:00pm 26.7 10.4 36 2.5 8.6 1013.2 0.0
15/02:30pm 26.0 10.6 38 6.1 11.2 1013.2 0.0

OBSERVATIONS  72 - 96  HOURS

00-24 HOURS 24-48 HOURS 48-72 HOURS 72-96 HOURS 96-120 HOURS Navigation Menu

Date/Time
WST
temperature
°C
Dew Point
°C
Humidity
%
Wind Speed
km/h
Wind Gust
km/h
Wind
Direction
Barometer
mb
Rain Today
mm
15/03:00pm 26.7 10.4 36 2.5 8.6 1013.2 0.0
15/02:30pm 26.0 10.6 38 6.1 11.2 1013.2 0.0
15/02:00pm 26.0 10.6 38 3.6 11.2 1013.2 0.0
15/01:30pm 25.5 10.2 38 7.2 11.2 1013.2 0.0
15/01:00pm 25.2 11.0 41 2.5 11.2 1013.2 0.0
15/12:30pm 24.9 11.5 43 3.6 12.2 1013.2 0.0
15/12:00pm 24.0 11.0 44 7.2 12.2 1013.2 0.0
15/11:30am 24.4 11.4 44 6.1 9.7 1013.2 0.0
15/11:00am 24.6 11.2 43 3.6 8.6 1013.2 0.0
15/10:30am 24.1 10.4 42 3.6 12.2 1013.2 0.0
15/10:00am 23.6 10.3 43 9.7 12.2 1013.2 0.0
15/09:30am 23.2 11.0 46 6.1 12.2 1013.2 0.0
15/09:00am 24.2 9.8 40 0.0 7.2 1013.2 0.0
15/08:30am 23.0 10.8 46 0.0 6.1 1013.2 0.0
15/08:00am 20.8 10.3 51 3.6 7.2 1013.2 0.0
15/07:30am 18.8 10.4 58 6.1 7.2 1013.2 0.0
15/07:00am 18.3 10.7 61 1.1 3.6 1013.2 0.0
15/06:30am 13.1 9.9 81 0.0 2.5 1013.2 0.0
15/06:00am 12.6 9.2 80 0.0 1.1 1013.2 0.0
15/05:30am 12.8 9.4 80 0.0 3.6 1013.2 0.0
15/05:00am 13.0 9.4 79 1.1 5.0 1013.2 0.0
15/04:30am 13.3 9.4 77 0.0 5.0 1013.2 0.0
15/04:00am 13.5 9.7 78 3.6 5.0 1013.2 0.0
15/03:30am 13.7 9.9 78 2.5 11.2 1013.2 0.0
15/03:00am 13.7 9.9 78 1.1 6.1 1013.2 0.0
15/02:30am 13.5 9.9 79 3.6 6.1 1013.2 0.0
15/02:00am 13.7 9.9 78 2.5 6.1 1013.2 0.0
15/01:30am 13.9 10.1 78 2.5 6.1 1013.2 0.0
15/01:00am 14.1 10.5 79 2.5 6.1 1013.2 0.0
15/12:30am 14.3 10.5 78 3.6 5.0 1013.2 0.0
15/12:00am 26.7 10.4 36 2.5 8.6 1013.2 0.0
14/11:30pm 14.9 10.9 77 3.6 6.1 1013.2 0.6
14/11:00pm 15.2 11.0 76 1.1 8.6 1013.2 0.6
14/10:30pm 15.6 11.2 75 2.5 8.6 1013.2 0.6
14/10:00pm 16.1 11.5 74 3.6 11.2 1013.2 0.6
14/09:30pm 16.8 11.5 71 3.6 8.6 1013.2 0.6
14/09:00pm 17.5 10.6 64 6.1 8.6 1013.2 0.6
14/08:30pm 18.4 11.0 62 3.6 9.7 1013.2 0.6
14/08:00pm 18.6 12.4 67 7.2 13.3 1013.2 0.6
14/07:30pm 19.2 12.0 63 7.2 11.2 1013.2 0.6
14/07:00pm 20.1 12.6 62 2.5 11.2 1013.2 0.6
14/06:30pm 22.2 12.7 55 11.2 14.8 1013.2 0.6
14/06:00pm 24.1 11.8 46 3.6 14.8 1013.2 0.6
14/05:30pm 25.3 11.5 42 2.5 15.8 1013.2 0.6
14/05:00pm 27.4 12.6 40 2.5 11.2 1013.2 0.6
14/04:30pm 27.9 11.5 36 2.5 9.7 1013.2 0.6
14/04:00pm 27.7 10.4 34 1.1 14.8 1013.2 0.6
14/03:30pm 28.2 10.9 34 3.6 11.2 1013.2 0.6
14/03:00pm 27.2 12.4 40 8.6 11.2 1013.2 0.6
14/02:30pm 26.2 12.3 42 2.5 11.2 1013.2 0.6

OBSERVATIONS  96 - 120  HOURS

00-24 HOURS 24-48 HOURS 48-72 HOURS 72-96 HOURS 96-120 HOURS Navigation Menu

Date/Time
WST
temperature
°C
Dew Point
°C
Humidity
%
Wind Speed
km/h
Wind Gust
km/h
Wind
Direction
Barometer
mb
Rain Today
mm
14/03:00pm 27.2 12.4 40 8.6 11.2 1013.2 0.6
14/02:30pm 26.2 12.3 42 2.5 11.2 1013.2 0.6
14/02:00pm 26.3 12.7 43 2.5 13.3 1013.2 0.6
14/01:30pm 25.6 12.5 44 3.6 9.7 1013.2 0.6
14/01:00pm 25.0 12.9 47 5.0 17.3 1013.2 0.6
14/12:30pm 24.5 14.0 52 5.0 15.8 1013.2 0.6
14/12:00pm 23.4 13.6 54 6.1 14.8 1013.2 0.6
14/11:30am 23.3 14.3 57 2.5 12.2 1013.2 0.6
14/11:00am 21.8 14.2 62 9.7 12.2 1013.2 0.6
14/10:30am 19.8 14.2 70 5.0 14.8 1013.2 0.6
14/10:00am 19.5 14.3 72 12.2 14.8 1013.2 0.6
14/09:30am 18.2 15.3 83 3.6 11.2 1013.2 0.6
14/09:00am 18.0 16.3 90 2.5 7.2 1013.2 0.6
14/08:30am 17.3 16.5 95 1.1 12.2 1013.2 0.6
14/08:00am 17.4 16.4 94 2.5 6.1 1013.2 0.3
14/07:30am 17.6 15.4 87 3.6 6.1 1013.2 0.0
14/07:00am 17.7 14.8 83 0.0 6.1 1013.2 0.0
14/06:30am 17.7 14.4 81 0.0 6.1 1013.2 0.0
14/06:00am 17.8 14.5 81 2.5 7.2 1013.2 0.0
14/05:30am 17.7 14.4 81 3.6 7.2 1013.2 0.0
14/05:00am 17.7 14.4 81 2.5 7.2 1013.2 0.0
14/04:30am 17.7 14.8 83 3.6 7.2 1013.2 0.0
14/04:00am 17.4 15.8 90 3.6 6.1 1013.2 0.0
14/03:30am 17.5 15.0 85 0.0 6.1 1013.2 0.0
14/03:00am 18.0 15.5 85 3.6 6.1 1013.2 0.0
14/02:30am 18.1 15.7 86 0.0 6.1 1013.2 0.0
14/02:00am 18.1 15.7 86 1.1 3.6 1013.2 0.0
14/01:30am 18.0 15.3 84 0.0 2.5 1013.2 0.0
14/01:00am 18.3 14.8 80 0.0 2.5 1013.2 0.0
14/12:30am 18.7 14.6 77 0.0 2.5 1013.2 0.0
14/12:00am 19.0 14.3 74 0.0 2.5 1013.2 0.0
13/11:30pm 19.4 14.9 75 0.0 3.6 1013.2 0.0
13/11:00pm 19.7 14.7 73 1.1 3.6 1013.2 0.0
13/10:30pm 19.6 14.9 74 0.0 0.0 1013.2 0.0
13/10:00pm 19.9 15.1 74 0.0 3.6 1013.2 0.0
13/09:30pm 20.4 15.4 73 3.6 8.6 1013.2 0.0
13/09:00pm 20.5 15.9 75 3.6 11.2 1013.2 0.0
13/08:30pm 21.1 16.1 73 7.2 19.4 1013.2 0.0
13/08:00pm 23.0 15.6 63 8.6 18.4 1013.2 0.0
13/07:30pm 25.7 14.5 50 0.0 3.6 1013.2 0.0
13/07:00pm 25.1 14.9 53 1.1 6.1 1013.2 0.0
13/06:30pm 26.7 14.1 46 1.1 5.0 1013.2 0.0
13/06:00pm 27.1 12.7 41 1.1 17.3 1013.2 0.0
13/05:30pm 29.9 10.5 30 2.5 8.6 1013.2 0.0
13/05:00pm 28.4 9.7 31 5.0 11.2 1013.2 0.0
13/04:30pm 29.2 9.9 30 7.2 11.2 1013.2 0.0
13/04:00pm 30.1 9.1 27 1.1 9.7 1013.2 0.0
13/03:30pm 32.5 6.7 20 3.6 7.2 1013.2 0.0
13/03:00pm 32.7 6.8 20 1.1 7.2 1013.2 0.0
13/02:30pm 34.5 8.3 20 3.6 8.6 1013.2 0.0

00-24 HOURS 24-48 HOURS 48-72 HOURS 72-96 HOURS 96-120 HOURS Navigation Menu


PLEASE CONSIDER LIKING/SHARING ON FACEBOOK WITH LINK ABOVE
THANK YOU.

Check out my video archive on my YouTube channel which has all my time-lapse videos created
Please feel free to donate to help with improvements and keep this site going with the link below(PayPal)
Cumulus Top Weather Sites World Weather Websites Paulen Top 100 Weatherstation List

Page updated 18/12/2017 3:00 PM
powered by Cumulusv1.9.4 (1099)
Free counters!
bonsai
Member of The Southern Bonsai Club


Speaker Icon Turns Ambient Background Sounds ON/OFF